Time;durP1;ratioP1;P1;durP2;ratioP2;P2;SDS_P1;SDS_P2;PMS_P1;PMS_P2;Temp;Humidity;BMP_temperature;BMP_pressure;BME280_temperature;BME280_humidity;BME280_pressure;Samples;Min_cycle;Max_cycle;Signal;HPM_P1;HPM_P2
2024/01/01 00:00:36;;;;;;;;;;;7.40;99.90;;;;;;5075263;27;20469;-59
2024/01/01 00:03:02;;;;;;;;;;;7.40;99.90;;;;;;5078540;27;19920;-59
2024/01/01 00:05:27;;;;;;;;;;;7.40;99.90;;;;;;5073068;27;19928;-59
2024/01/01 00:07:53;;;;;;;;;;;7.40;99.90;;;;;;5084981;27;19935;-59
2024/01/01 00:10:19;;;;;;;;;;;7.40;99.90;;;;;;5079551;27;20382;-60
2024/01/01 00:12:45;;;;;;;;;;;7.40;99.90;;;;;;5076598;28;19960;-59
2024/01/01 00:15:11;;;;;;;;;;;7.40;99.90;;;;;;5075618;28;19924;-59
2024/01/01 00:17:37;;;;;;;;;;;7.40;99.90;;;;;;5086674;27;19923;-60
2024/01/01 00:20:03;;;;;;;;;;;7.40;99.90;;;;;;5083232;27;19932;-59
2024/01/01 00:22:28;;;;;;;;;;;7.30;99.90;;;;;;5076069;27;19924;-59
2024/01/01 00:24:54;;;;;;;;;;;7.30;99.90;;;;;;5074513;27;19935;-59
2024/01/01 00:27:19;;;;;;;;;;;7.30;99.90;;;;;;5079123;27;20469;-59
2024/01/01 00:29:45;;;;;;;;;;;7.30;99.90;;;;;;5088207;27;20023;-58
2024/01/01 00:32:11;;;;;;;;;;;7.30;99.90;;;;;;5082093;28;19953;-59
2024/01/01 00:34:36;;;;;;;;;;;7.30;99.90;;;;;;5074469;28;20401;-58
2024/01/01 00:37:02;;;;;;;;;;;7.30;99.90;;;;;;5081847;28;20022;-58
2024/01/01 00:39:28;;;;;;;;;;;7.30;99.90;;;;;;5080539;28;20087;-59
2024/01/01 00:41:53;;;;;;;;;;;7.30;99.90;;;;;;5070151;28;19936;-60
2024/01/01 00:44:19;;;;;;;;;;;7.30;99.90;;;;;;5086925;28;20297;-60
2024/01/01 00:46:44;;;;;;;;;;;7.40;99.90;;;;;;5086568;28;19924;-60
2024/01/01 00:49:10;;;;;;;;;;;7.30;99.90;;;;;;5085248;28;19936;-60
2024/01/01 00:51:35;;;;;;;;;;;7.30;99.90;;;;;;5086495;28;20382;-59
2024/01/01 00:54:01;;;;;;;;;;;7.30;99.90;;;;;;5088475;28;19949;-59
2024/01/01 00:56:26;;;;;;;;;;;7.30;99.90;;;;;;5088381;28;20285;-60
2024/01/01 00:58:52;;;;;;;;;;;7.30;99.90;;;;;;5081274;28;19924;-60
2024/01/01 01:01:18;;;;;;;;;;;7.30;99.90;;;;;;5083269;28;19977;-59
2024/01/01 01:03:43;;;;;;;;;;;7.30;99.90;;;;;;5090334;27;20251;-60
2024/01/01 01:06:09;;;;;;;;;;;7.30;99.90;;;;;;5090170;28;19931;-59
2024/01/01 01:08:34;;;;;;;;;;;7.30;99.90;;;;;;5088249;28;20394;-59
2024/01/01 01:11:00;;;;;;;;;;;7.30;99.90;;;;;;5037388;28;20599;-59
2024/01/01 01:13:26;;;;;;;;;;;7.30;99.90;;;;;;5087546;27;19949;-59
2024/01/01 01:15:51;;;;;;;;;;;7.20;99.90;;;;;;5085835;27;20536;-60
2024/01/01 01:18:17;;;;;;;;;;;7.30;99.90;;;;;;5082881;27;19934;-59
2024/01/01 01:20:43;;;;;;;;;;;7.30;99.90;;;;;;5074981;27;20496;-59
2024/01/01 01:23:09;;;;;;;;;;;7.30;99.90;;;;;;5084119;27;20378;-59
2024/01/01 01:25:35;;;;;;;;;;;7.30;99.90;;;;;;5080593;27;20057;-60
2024/01/01 01:28:02;;;;;;;;;;;7.30;99.90;;;;;;5085160;28;20294;-59
2024/01/01 01:30:28;;;;;;;;;;;7.30;99.90;;;;;;5092330;28;20010;-60
2024/01/01 01:32:53;;;;;;;;;;;7.30;99.90;;;;;;5085751;27;19930;-59
2024/01/01 01:35:19;;;;;;;;;;;7.30;99.90;;;;;;5091894;27;20043;-59
2024/01/01 01:37:44;;;;;;;;;;;7.30;99.90;;;;;;5097913;27;19923;-59
2024/01/01 01:40:10;;;;;;;;;;;7.40;99.90;;;;;;5079216;28;19928;-59
2024/01/01 01:42:36;;;;;;;;;;;7.30;99.90;;;;;;5082125;28;20304;-59
2024/01/01 01:45:02;;;;;;;;;;;7.30;99.90;;;;;;5090626;28;19950;-59
2024/01/01 01:47:28;;;;;;;;;;;7.40;99.90;;;;;;5091739;28;20455;-60
2024/01/01 01:49:54;;;;;;;;;;;7.50;99.90;;;;;;5086686;28;19924;-60
2024/01/01 01:52:20;;;;;;;;;;;7.40;99.90;;;;;;5090613;28;19958;-59
2024/01/01 01:54:46;;;;;;;;;;;7.40;99.90;;;;;;5101747;28;20309;-59
2024/01/01 01:57:14;;;;;;;;;;;7.40;99.90;;;;;;5089447;28;19924;-58
2024/01/01 01:59:42;;;;;;;;;;;7.40;99.90;;;;;;5092178;28;19943;-58
2024/01/01 02:02:08;;;;;;;;;;;7.40;99.90;;;;;;5097302;28;19920;-59
2024/01/01 02:04:34;;;;;;;;;;;7.40;99.90;;;;;;5100796;28;19927;-59
2024/01/01 02:06:59;;;;;;;;;;;7.40;99.90;;;;;;5098474;28;19930;-59
2024/01/01 02:09:25;;;;;;;;;;;7.40;99.90;;;;;;5098872;28;19971;-59
2024/01/01 02:11:50;;;;;;;;;;;7.40;99.90;;;;;;5099424;28;19932;-59
2024/01/01 02:14:16;;;;;;;;;;;7.40;99.90;;;;;;5097921;28;20464;-59
2024/01/01 02:16:44;;;;;;;;;;;7.50;99.90;;;;;;5098116;28;19928;-59
2024/01/01 02:19:20;;;;;;;;;;;7.50;99.90;;;;;;5093380;28;19928;-59
2024/01/01 02:21:46;;;;;;;;;;;7.50;99.90;;;;;;5100442;27;19924;-59
2024/01/01 02:24:11;;;;;;;;;;;7.50;99.90;;;;;;5092824;28;20002;-59
2024/01/01 02:26:37;;;;;;;;;;;7.50;99.90;;;;;;5096621;27;20426;-59
2024/01/01 02:29:03;;;;;;;;;;;7.50;99.90;;;;;;5093353;28;20011;-59
2024/01/01 02:31:28;;;;;;;;;;;7.50;99.90;;;;;;5094312;28;19928;-60
2024/01/01 02:33:54;;;;;;;;;;;7.40;99.90;;;;;;5092841;28;19971;-59
2024/01/01 02:36:19;;;;;;;;;;;7.40;99.90;;;;;;5095123;28;19928;-59
2024/01/01 02:38:45;;;;;;;;;;;7.40;99.90;;;;;;5089262;28;19924;-59
2024/01/01 02:41:10;;;;;;;;;;;7.40;99.90;;;;;;5074480;28;19923;-59
2024/01/01 02:43:36;;;;;;;;;;;7.40;99.90;;;;;;5039582;28;19978;-59
2024/01/01 02:46:02;;;;;;;;;;;7.40;99.90;;;;;;5038898;28;19932;-59
2024/01/01 02:48:28;;;;;;;;;;;7.40;99.90;;;;;;5055153;28;19928;-59
2024/01/01 02:50:53;;;;;;;;;;;7.40;99.90;;;;;;5075288;28;19942;-58
2024/01/01 02:53:19;;;;;;;;;;;7.40;99.90;;;;;;5052634;28;20493;-59
2024/01/01 02:55:44;;;;;;;;;;;7.30;99.90;;;;;;5073990;28;19924;-60
2024/01/01 02:58:10;;;;;;;;;;;7.30;99.90;;;;;;5066260;28;20054;-59
2024/01/01 03:00:36;;;;;;;;;;;7.30;99.90;;;;;;5073551;28;19931;-59
2024/01/01 03:03:03;;;;;;;;;;;7.30;99.90;;;;;;5082304;28;19946;-60
2024/01/01 03:05:28;;;;;;;;;;;7.20;99.90;;;;;;5074340;28;19966;-60
2024/01/01 03:07:54;;;;;;;;;;;7.20;99.90;;;;;;5079316;28;20371;-60
2024/01/01 03:10:19;;;;;;;;;;;7.10;99.90;;;;;;5077758;28;19924;-59
2024/01/01 03:12:45;;;;;;;;;;;7.10;99.90;;;;;;5075715;28;19931;-59
2024/01/01 03:15:11;;;;;;;;;;;7.10;99.90;;;;;;5062273;28;20282;-59
2024/01/01 03:17:36;;;;;;;;;;;7.10;99.90;;;;;;5059134;28;20436;-59
2024/01/01 03:20:04;;;;;;;;;;;7.00;99.90;;;;;;5064953;28;20904;-59
2024/01/01 03:22:30;;;;;;;;;;;7.10;99.90;;;;;;5056217;28;20012;-59
2024/01/01 03:24:55;;;;;;;;;;;7.00;99.90;;;;;;5076125;28;20003;-59
2024/01/01 03:27:21;;;;;;;;;;;7.10;99.90;;;;;;5077672;28;19927;-60
2024/01/01 03:29:47;;;;;;;;;;;7.00;99.90;;;;;;5075234;28;20001;-60
2024/01/01 03:32:12;;;;;;;;;;;7.00;99.90;;;;;;5063902;28;19970;-60
2024/01/01 03:34:38;;;;;;;;;;;7.00;99.90;;;;;;5072859;28;19924;-59
2024/01/01 03:37:04;;;;;;;;;;;7.00;99.90;;;;;;5076488;28;20275;-59
2024/01/01 03:39:30;;;;;;;;;;;6.90;99.90;;;;;;5076601;28;19954;-58
2024/01/01 03:41:55;;;;;;;;;;;7.00;99.90;;;;;;5086907;28;19920;-59
2024/01/01 03:44:21;;;;;;;;;;;7.00;99.90;;;;;;5087422;28;20022;-59
2024/01/01 03:46:47;;;;;;;;;;;6.90;99.90;;;;;;5091506;28;19941;-59
2024/01/01 03:49:12;;;;;;;;;;;6.90;99.90;;;;;;5090031;28;19924;-60
2024/01/01 03:51:38;;;;;;;;;;;6.90;99.90;;;;;;5088099;28;19930;-59
2024/01/01 03:54:04;;;;;;;;;;;6.90;99.90;;;;;;5090726;28;19962;-59
2024/01/01 03:56:29;;;;;;;;;;;6.90;99.90;;;;;;5094072;28;19924;-59
2024/01/01 03:58:55;;;;;;;;;;;6.90;99.90;;;;;;5073501;28;20059;-59
2024/01/01 04:01:25;;;;;;;;;;;6.90;99.90;;;;;;5092215;27;20613;-59
2024/01/01 04:03:51;;;;;;;;;;;6.90;99.90;;;;;;5094716;28;20370;-60
2024/01/01 04:06:17;;;;;;;;;;;6.90;99.90;;;;;;5089365;28;19924;-59
2024/01/01 04:08:42;;;;;;;;;;;6.90;99.90;;;;;;5088990;28;19920;-58
2024/01/01 04:11:08;;;;;;;;;;;6.90;99.90;;;;;;5092462;28;19930;-60
2024/01/01 04:13:34;;;;;;;;;;;6.90;99.90;;;;;;5088611;28;20354;-58
2024/01/01 04:16:00;;;;;;;;;;;6.80;99.90;;;;;;5080033;28;20413;-59
2024/01/01 04:18:26;;;;;;;;;;;6.90;99.90;;;;;;5088977;28;19963;-58
2024/01/01 04:20:53;;;;;;;;;;;6.90;99.90;;;;;;5091270;28;20041;-58
2024/01/01 04:23:18;;;;;;;;;;;6.80;99.90;;;;;;5089909;28;19942;-59
2024/01/01 04:25:44;;;;;;;;;;;6.80;99.90;;;;;;5089439;28;19923;-59
2024/01/01 04:28:09;;;;;;;;;;;6.80;99.90;;;;;;5086493;28;19928;-58
2024/01/01 04:30:35;;;;;;;;;;;6.80;99.90;;;;;;5082623;28;20066;-59
2024/01/01 04:33:01;;;;;;;;;;;6.80;99.90;;;;;;5084103;28;20329;-59
2024/01/01 04:35:26;;;;;;;;;;;6.80;99.90;;;;;;5090394;28;19996;-59
2024/01/01 04:37:52;;;;;;;;;;;6.80;99.90;;;;;;5087754;28;19920;-59
2024/01/01 04:40:19;;;;;;;;;;;6.70;99.90;;;;;;5075002;28;20655;-59
2024/01/01 04:42:45;;;;;;;;;;;6.70;99.90;;;;;;5075726;28;19924;-59
2024/01/01 04:45:10;;;;;;;;;;;6.80;99.90;;;;;;5070149;28;19932;-59
2024/01/01 04:47:36;;;;;;;;;;;6.70;99.90;;;;;;5053254;28;19975;-60
2024/01/01 04:50:02;;;;;;;;;;;6.70;99.90;;;;;;5073800;28;19927;-60
2024/01/01 04:52:28;;;;;;;;;;;6.70;99.90;;;;;;5049190;28;19955;-58
2024/01/01 04:54:55;;;;;;;;;;;6.70;99.90;;;;;;5071818;28;19924;-59
2024/01/01 04:57:21;;;;;;;;;;;6.70;99.90;;;;;;5074374;28;19920;-59
2024/01/01 04:59:46;;;;;;;;;;;6.70;99.90;;;;;;5063926;28;20340;-59
2024/01/01 05:02:12;;;;;;;;;;;6.70;99.90;;;;;;5037178;28;19955;-59
2024/01/01 05:04:37;;;;;;;;;;;6.70;99.90;;;;;;5045208;28;20260;-59
2024/01/01 05:07:03;;;;;;;;;;;6.70;99.90;;;;;;5058953;28;19935;-59
2024/01/01 05:09:29;;;;;;;;;;;6.70;99.90;;;;;;5066894;28;19975;-59
2024/01/01 05:11:56;;;;;;;;;;;6.70;99.90;;;;;;5047161;28;20432;-58
2024/01/01 05:14:22;;;;;;;;;;;6.70;99.90;;;;;;5048103;28;20533;-59
2024/01/01 05:16:47;;;;;;;;;;;6.70;99.90;;;;;;5066226;28;19924;-60
2024/01/01 05:19:13;;;;;;;;;;;6.70;99.90;;;;;;5034567;28;20107;-59
2024/01/01 05:21:39;;;;;;;;;;;6.60;99.90;;;;;;5066945;28;20006;-59
2024/01/01 05:24:05;;;;;;;;;;;6.70;99.90;;;;;;5053830;28;19928;-57
2024/01/01 05:26:30;;;;;;;;;;;6.70;99.90;;;;;;5066415;28;20014;-58
2024/01/01 05:28:56;;;;;;;;;;;6.70;99.90;;;;;;5067280;28;19979;-59
2024/01/01 05:31:22;;;;;;;;;;;6.60;99.90;;;;;;5061743;28;19928;-58
2024/01/01 05:33:48;;;;;;;;;;;6.70;99.90;;;;;;5064390;28;19928;-59
2024/01/01 05:36:13;;;;;;;;;;;6.70;99.90;;;;;;5070139;28;19947;-59
2024/01/01 05:38:39;;;;;;;;;;;6.70;99.90;;;;;;5059917;28;19957;-59
2024/01/01 05:41:05;;;;;;;;;;;6.70;99.90;;;;;;5082920;28;19928;-59
2024/01/01 05:43:31;;;;;;;;;;;6.70;99.90;;;;;;5075186;28;20448;-59
2024/01/01 05:45:57;;;;;;;;;;;6.70;99.90;;;;;;5082905;28;19928;-59
2024/01/01 05:48:22;;;;;;;;;;;6.70;99.90;;;;;;5081157;27;19928;-60
2024/01/01 05:50:48;;;;;;;;;;;6.70;99.90;;;;;;5083113;27;19924;-59
2024/01/01 05:53:13;;;;;;;;;;;6.70;99.90;;;;;;5088362;27;19978;-59
2024/01/01 05:55:39;;;;;;;;;;;6.70;99.90;;;;;;5083089;27;20424;-59
2024/01/01 05:58:05;;;;;;;;;;;6.70;99.90;;;;;;5077146;28;19958;-59
2024/01/01 06:00:30;;;;;;;;;;;6.70;99.90;;;;;;5083479;27;19924;-59
2024/01/01 06:02:56;;;;;;;;;;;6.70;99.90;;;;;;5089325;27;19939;-59
2024/01/01 06:05:21;;;;;;;;;;;6.70;99.90;;;;;;5076699;27;19949;-59
2024/01/01 06:07:47;;;;;;;;;;;6.70;99.90;;;;;;5089177;27;19920;-58
2024/01/01 06:10:12;;;;;;;;;;;6.70;99.90;;;;;;5085515;27;19927;-59
2024/01/01 06:12:38;;;;;;;;;;;6.70;99.90;;;;;;5077220;27;19928;-58
2024/01/01 06:15:04;;;;;;;;;;;6.70;99.90;;;;;;5087866;27;20669;-59
2024/01/01 06:17:29;;;;;;;;;;;6.70;99.90;;;;;;5089168;27;19932;-58
2024/01/01 06:19:56;;;;;;;;;;;6.80;99.90;;;;;;5085255;27;19967;-60
2024/01/01 06:22:22;;;;;;;;;;;6.80;99.90;;;;;;5084610;27;19928;-59
2024/01/01 06:24:47;;;;;;;;;;;6.80;99.90;;;;;;5082234;27;20609;-59
2024/01/01 06:27:13;;;;;;;;;;;6.80;99.90;;;;;;5082227;27;21388;-59
2024/01/01 06:29:39;;;;;;;;;;;6.80;99.90;;;;;;5085623;27;19927;-58
2024/01/01 06:32:04;;;;;;;;;;;6.80;99.90;;;;;;5086335;27;19924;-59
2024/01/01 06:34:30;;;;;;;;;;;6.80;99.90;;;;;;5087114;27;19920;-58
2024/01/01 06:36:56;;;;;;;;;;;6.80;99.90;;;;;;5090247;27;20436;-58
2024/01/01 06:39:21;;;;;;;;;;;6.90;99.90;;;;;;5086826;27;20351;-58
2024/01/01 06:41:47;;;;;;;;;;;6.80;99.90;;;;;;5089572;27;19974;-59
2024/01/01 06:44:12;;;;;;;;;;;6.90;99.90;;;;;;5078360;27;19933;-58
2024/01/01 06:46:39;;;;;;;;;;;6.90;99.90;;;;;;5086281;27;20298;-58
2024/01/01 06:49:05;;;;;;;;;;;6.80;99.90;;;;;;5083180;28;20359;-59
2024/01/01 06:51:33;;;;;;;;;;;6.90;99.90;;;;;;5086010;27;19923;-59
2024/01/01 06:53:58;;;;;;;;;;;6.90;99.90;;;;;;5081643;27;19927;-58
2024/01/01 06:56:24;;;;;;;;;;;6.90;99.90;;;;;;5087256;27;20286;-59
2024/01/01 06:58:49;;;;;;;;;;;6.90;99.90;;;;;;5077667;27;19932;-59
2024/01/01 07:01:15;;;;;;;;;;;6.90;99.90;;;;;;5080694;27;20377;-59
2024/01/01 07:03:41;;;;;;;;;;;6.90;99.90;;;;;;5084898;27;19931;-59
2024/01/01 07:06:06;;;;;;;;;;;6.90;99.90;;;;;;5081377;27;19928;-59
2024/01/01 07:08:32;;;;;;;;;;;6.90;99.90;;;;;;5085572;27;19927;-59
2024/01/01 07:10:58;;;;;;;;;;;6.90;99.90;;;;;;5086287;27;19985;-59
2024/01/01 07:13:23;;;;;;;;;;;7.00;99.90;;;;;;5082396;27;20418;-59
2024/01/01 07:15:49;;;;;;;;;;;7.00;99.90;;;;;;5079499;27;20731;-59
2024/01/01 07:18:16;;;;;;;;;;;6.90;99.90;;;;;;5085676;27;19966;-59
2024/01/01 07:20:43;;;;;;;;;;;7.00;99.90;;;;;;5061977;28;19923;-58
2024/01/01 07:23:09;;;;;;;;;;;7.00;99.90;;;;;;5084152;27;19928;-59
2024/01/01 07:25:35;;;;;;;;;;;7.00;99.90;;;;;;5083225;27;19950;-59
2024/01/01 07:28:00;;;;;;;;;;;7.00;99.90;;;;;;5081756;27;19997;-59
2024/01/01 07:30:26;;;;;;;;;;;7.00;99.90;;;;;;5086905;27;20396;-60
2024/01/01 07:32:51;;;;;;;;;;;7.00;99.90;;;;;;5089410;27;19920;-59
2024/01/01 07:35:18;;;;;;;;;;;6.90;99.90;;;;;;5085974;27;20321;-59
2024/01/01 07:37:45;;;;;;;;;;;6.90;99.90;;;;;;5083960;27;20374;-59
2024/01/01 07:40:10;;;;;;;;;;;6.80;99.90;;;;;;5083360;27;19939;-59
2024/01/01 07:42:36;;;;;;;;;;;6.80;99.90;;;;;;5098065;27;20370;-60
2024/01/01 07:45:02;;;;;;;;;;;6.80;99.90;;;;;;5083143;28;19971;-60
2024/01/01 07:47:27;;;;;;;;;;;6.80;99.90;;;;;;5087864;27;20454;-59
2024/01/01 07:49:53;;;;;;;;;;;6.70;99.90;;;;;;5087692;27;20490;-59
2024/01/01 07:52:19;;;;;;;;;;;6.80;99.90;;;;;;5088009;27;19935;-58
2024/01/01 07:54:44;;;;;;;;;;;6.70;99.90;;;;;;5084841;28;19931;-59
2024/01/01 07:57:10;;;;;;;;;;;6.70;99.90;;;;;;5081854;27;20010;-59
2024/01/01 07:59:35;;;;;;;;;;;6.70;99.90;;;;;;5083660;27;19932;-59
2024/01/01 08:02:01;;;;;;;;;;;6.60;99.90;;;;;;5073286;27;20004;-58
2024/01/01 08:04:27;;;;;;;;;;;6.60;99.90;;;;;;5088162;28;19927;-60
2024/01/01 08:06:52;;;;;;;;;;;6.60;99.90;;;;;;5082784;27;19973;-59
2024/01/01 08:09:18;;;;;;;;;;;6.50;99.90;;;;;;5076512;28;19950;-60
2024/01/01 08:11:43;;;;;;;;;;;6.50;99.90;;;;;;5082393;27;19924;-59
2024/01/01 08:14:09;;;;;;;;;;;6.50;99.90;;;;;;5074918;28;19927;-59
2024/01/01 08:16:34;;;;;;;;;;;6.50;99.90;;;;;;5079093;27;19985;-58
2024/01/01 08:19:00;;;;;;;;;;;6.50;99.90;;;;;;5083877;27;20057;-59
2024/01/01 08:21:26;;;;;;;;;;;6.50;99.90;;;;;;5090921;27;19920;-59
2024/01/01 08:23:51;;;;;;;;;;;6.40;99.90;;;;;;5066073;27;20424;-58
2024/01/01 08:26:17;;;;;;;;;;;6.40;99.90;;;;;;5088876;27;19927;-59
2024/01/01 08:28:43;;;;;;;;;;;6.50;99.90;;;;;;5083542;27;19991;-58
2024/01/01 08:31:08;;;;;;;;;;;6.40;99.90;;;;;;5082578;27;19924;-60
2024/01/01 08:33:34;;;;;;;;;;;6.40;99.90;;;;;;5082908;28;19923;-59
2024/01/01 08:35:59;;;;;;;;;;;6.40;99.90;;;;;;5079820;28;20270;-58
2024/01/01 08:38:25;;;;;;;;;;;6.50;99.90;;;;;;5078252;28;19931;-59
2024/01/01 08:40:51;;;;;;;;;;;6.50;99.90;;;;;;5086071;28;19928;-60
2024/01/01 08:43:16;;;;;;;;;;;6.50;99.90;;;;;;5083262;28;19927;-59
2024/01/01 08:45:42;;;;;;;;;;;6.50;99.90;;;;;;5083798;28;19978;-59
2024/01/01 08:48:07;;;;;;;;;;;6.50;99.90;;;;;;5066325;28;19923;-59
2024/01/01 08:50:33;;;;;;;;;;;6.50;99.90;;;;;;5087896;28;19926;-59
2024/01/01 08:52:59;;;;;;;;;;;6.60;99.90;;;;;;5089716;28;19924;-59
2024/01/01 08:55:24;;;;;;;;;;;6.50;99.90;;;;;;5086233;28;20037;-58
2024/01/01 08:57:50;;;;;;;;;;;6.60;99.90;;;;;;5085698;28;19924;-59
2024/01/01 09:00:18;;;;;;;;;;;6.60;99.90;;;;;;5083343;28;20018;-59
2024/01/01 09:02:44;;;;;;;;;;;6.60;99.90;;;;;;5084470;28;19928;-60
2024/01/01 09:05:10;;;;;;;;;;;6.60;99.90;;;;;;5081143;28;19930;-59
2024/01/01 09:07:35;;;;;;;;;;;6.60;99.90;;;;;;5086616;28;19928;-59
2024/01/01 09:10:02;;;;;;;;;;;6.60;99.90;;;;;;5088481;28;19974;-59
2024/01/01 09:12:28;;;;;;;;;;;6.70;99.90;;;;;;5086577;28;19920;-59
2024/01/01 09:14:54;;;;;;;;;;;6.60;99.90;;;;;;5084047;28;19928;-59
2024/01/01 09:17:19;;;;;;;;;;;6.60;99.90;;;;;;5068375;28;19928;-59
2024/01/01 09:19:45;;;;;;;;;;;6.60;99.90;;;;;;5082470;28;20511;-58
2024/01/01 09:22:11;;;;;;;;;;;6.60;99.90;;;;;;5086592;27;20402;-59
2024/01/01 09:24:36;;;;;;;;;;;6.60;99.90;;;;;;5100878;27;19954;-60
2024/01/01 09:27:02;;;;;;;;;;;6.60;99.90;;;;;;5073513;27;19970;-59
2024/01/01 09:29:27;;;;;;;;;;;6.50;99.90;;;;;;5091626;27;19920;-59
2024/01/01 09:31:53;;;;;;;;;;;6.60;99.90;;;;;;5088973;27;19935;-60
2024/01/01 09:34:19;;;;;;;;;;;6.50;99.90;;;;;;5087608;27;19965;-59
2024/01/01 09:36:44;;;;;;;;;;;6.50;99.90;;;;;;5100236;28;19976;-59
2024/01/01 09:39:10;;;;;;;;;;;6.50;99.90;;;;;;5086335;28;19939;-59
2024/01/01 09:41:35;;;;;;;;;;;6.50;99.90;;;;;;5079499;28;20436;-60
2024/01/01 09:44:02;;;;;;;;;;;6.50;99.90;;;;;;5072545;28;20023;-60
2024/01/01 09:46:32;;;;;;;;;;;6.40;99.90;;;;;;5064798;28;20347;-59
2024/01/01 09:49:02;;;;;;;;;;;6.50;99.90;;;;;;5054133;28;19931;-59
2024/01/01 09:51:28;;;;;;;;;;;6.50;99.90;;;;;;5072016;28;20058;-60
2024/01/01 09:53:53;;;;;;;;;;;6.50;99.90;;;;;;5067466;28;19924;-60
2024/01/01 09:56:20;;;;;;;;;;;6.60;99.90;;;;;;5052051;28;19924;-60
2024/01/01 09:58:45;;;;;;;;;;;6.60;99.90;;;;;;5063580;28;19921;-59
2024/01/01 10:01:12;;;;;;;;;;;6.60;99.90;;;;;;5059976;28;19946;-59
2024/01/01 10:03:38;;;;;;;;;;;6.60;99.90;;;;;;5070327;28;19924;-60
2024/01/01 10:06:08;;;;;;;;;;;6.70;99.90;;;;;;5077268;28;19921;-59
2024/01/01 10:08:34;;;;;;;;;;;6.70;99.90;;;;;;5056963;28;19960;-60
2024/01/01 10:11:14;;;;;;;;;;;6.70;99.90;;;;;;5074588;28;19936;-58
2024/01/01 10:13:39;;;;;;;;;;;6.70;99.90;;;;;;5056388;28;20014;-60
2024/01/01 10:16:05;;;;;;;;;;;6.70;99.90;;;;;;5055932;28;19954;-60
2024/01/01 10:18:30;;;;;;;;;;;6.70;99.90;;;;;;5056997;28;19931;-60
2024/01/01 10:21:08;;;;;;;;;;;6.70;99.90;;;;;;5074559;28;19935;-60
2024/01/01 10:23:33;;;;;;;;;;;6.80;99.90;;;;;;5054661;28;20375;-59
2024/01/01 10:26:03;;;;;;;;;;;6.80;99.90;;;;;;5057995;28;19928;-60
2024/01/01 10:28:30;;;;;;;;;;;6.80;99.90;;;;;;5055979;28;19924;-59
2024/01/01 10:30:55;;;;;;;;;;;6.90;99.90;;;;;;5073716;28;19924;-60
2024/01/01 10:33:21;;;;;;;;;;;7.00;99.90;;;;;;5043984;28;20436;-59
2024/01/01 10:35:47;;;;;;;;;;;7.00;99.90;;;;;;5056816;28;20004;-59
2024/01/01 10:38:13;;;;;;;;;;;7.20;99.90;;;;;;5072715;28;19969;-60
2024/01/01 10:40:40;;;;;;;;;;;7.20;99.90;;;;;;5075528;28;20014;-59
2024/01/01 10:43:07;;;;;;;;;;;7.30;99.90;;;;;;5093542;28;19934;-60
2024/01/01 10:45:33;;;;;;;;;;;7.40;99.90;;;;;;5090665;28;20031;-59
2024/01/01 10:47:59;;;;;;;;;;;7.40;99.90;;;;;;5084005;28;19920;-59
2024/01/01 10:50:29;;;;;;;;;;;7.50;99.90;;;;;;5082538;28;19924;-60
2024/01/01 10:53:02;;;;;;;;;;;7.40;99.90;;;;;;5080103;27;20021;-59
2024/01/01 10:55:31;;;;;;;;;;;7.50;99.90;;;;;;5074559;27;19924;-59
2024/01/01 10:57:57;;;;;;;;;;;7.50;99.90;;;;;;5095891;28;19924;-59
2024/01/01 11:00:29;;;;;;;;;;;7.50;99.90;;;;;;5091555;28;20321;-59
2024/01/01 11:02:55;;;;;;;;;;;7.50;99.90;;;;;;5090850;28;19924;-60
2024/01/01 11:05:29;;;;;;;;;;;7.50;99.90;;;;;;5084838;27;20420;-59
2024/01/01 11:07:56;;;;;;;;;;;7.50;99.90;;;;;;5095567;28;19923;-59
2024/01/01 11:10:41;;;;;;;;;;;7.50;99.90;;;;;;5087799;28;19943;-58
2024/01/01 11:13:14;;;;;;;;;;;7.60;99.90;;;;;;5093260;28;20483;-60
2024/01/01 11:15:43;;;;;;;;;;;7.60;99.90;;;;;;5083541;28;20370;-59
2024/01/01 11:18:18;;;;;;;;;;;7.60;99.90;;;;;;5094573;28;19931;-59
2024/01/01 11:20:50;;;;;;;;;;;7.60;99.90;;;;;;5092791;28;19947;-58
2024/01/01 11:23:36;;;;;;;;;;;7.50;99.90;;;;;;5117374;27;19992;-59
2024/01/01 11:26:22;;;;;;;;;;;7.60;99.90;;;;;;5092861;28;20003;-58
2024/01/01 11:28:55;;;;;;;;;;;7.50;99.90;;;;;;5089897;27;19920;-59
2024/01/01 11:31:21;;;;;;;;;;;7.60;99.90;;;;;;5089445;27;20381;-58
2024/01/01 11:34:06;;;;;;;;;;;7.60;99.90;;;;;;5086814;28;19928;-60
2024/01/01 11:36:32;;;;;;;;;;;7.50;99.90;;;;;;5084357;27;19927;-59
2024/01/01 11:38:58;;;;;;;;;;;7.60;99.90;;;;;;5089768;27;20006;-59
2024/01/01 11:41:28;;;;;;;;;;;7.60;99.90;;;;;;5083399;28;19934;-59
2024/01/01 11:43:53;;;;;;;;;;;7.60;99.90;;;;;;5085344;27;19983;-59
2024/01/01 11:46:28;;;;;;;;;;;7.60;99.90;;;;;;5083842;28;19928;-58
2024/01/01 11:48:55;;;;;;;;;;;7.50;99.90;;;;;;5079917;28;19963;-59
2024/01/01 11:51:21;;;;;;;;;;;7.50;99.90;;;;;;5084004;27;19935;-59
2024/01/01 11:53:46;;;;;;;;;;;7.50;99.90;;;;;;5078866;28;19926;-59
2024/01/01 11:56:12;;;;;;;;;;;7.50;99.90;;;;;;5072031;28;19924;-59
2024/01/01 11:58:37;;;;;;;;;;;7.50;99.90;;;;;;5050832;27;19928;-59
2024/01/01 12:01:03;;;;;;;;;;;7.50;99.90;;;;;;5068041;27;19932;-59
2024/01/01 12:03:29;;;;;;;;;;;7.50;99.90;;;;;;5067754;27;20717;-59
2024/01/01 12:06:02;;;;;;;;;;;7.50;99.90;;;;;;5068920;27;19924;-59
2024/01/01 12:08:27;;;;;;;;;;;7.50;99.90;;;;;;5068834;28;19967;-59
2024/01/01 12:10:59;;;;;;;;;;;7.50;99.90;;;;;;5073246;27;19980;-60
2024/01/01 12:13:25;;;;;;;;;;;7.50;99.90;;;;;;5070691;27;19924;-59
2024/01/01 12:15:53;;;;;;;;;;;7.60;99.90;;;;;;5049211;28;19928;-60
2024/01/01 12:18:18;;;;;;;;;;;7.60;99.90;;;;;;5075495;28;19924;-58
2024/01/01 12:20:44;;;;;;;;;;;7.60;99.90;;;;;;5073674;28;19932;-59
2024/01/01 12:23:13;;;;;;;;;;;7.70;99.90;;;;;;5078442;28;20313;-59
2024/01/01 12:25:38;;;;;;;;;;;7.70;99.90;;;;;;5077280;28;19927;-59
2024/01/01 12:28:05;;;;;;;;;;;7.70;99.90;;;;;;5084087;28;19931;-59
2024/01/01 12:30:31;;;;;;;;;;;7.80;99.90;;;;;;5076615;28;20033;-58
2024/01/01 12:32:57;;;;;;;;;;;7.80;99.90;;;;;;5075736;28;19920;-59
2024/01/01 12:35:23;;;;;;;;;;;7.80;99.90;;;;;;5073924;28;19975;-59
2024/01/01 12:37:49;;;;;;;;;;;7.90;99.90;;;;;;5070890;28;19920;-59
2024/01/01 12:40:14;;;;;;;;;;;8.00;99.90;;;;;;5066957;28;19932;-58
2024/01/01 12:42:40;;;;;;;;;;;8.00;99.90;;;;;;5077017;28;19930;-59
2024/01/01 12:45:06;;;;;;;;;;;8.00;99.90;;;;;;5072922;28;19920;-59
2024/01/01 12:47:31;;;;;;;;;;;8.00;99.90;;;;;;5063609;28;19984;-59
2024/01/01 12:49:57;;;;;;;;;;;8.00;99.90;;;;;;5050045;28;20573;-59
2024/01/01 12:52:23;;;;;;;;;;;8.10;99.90;;;;;;5068085;28;20433;-58
2024/01/01 12:54:48;;;;;;;;;;;8.10;99.90;;;;;;5070340;28;19928;-59
2024/01/01 12:57:14;;;;;;;;;;;8.10;99.90;;;;;;5066567;27;19947;-59
2024/01/01 12:59:40;;;;;;;;;;;8.10;99.90;;;;;;5073729;27;20369;-59
2024/01/01 13:02:05;;;;;;;;;;;8.00;99.90;;;;;;5080955;27;19928;-58
2024/01/01 13:04:31;;;;;;;;;;;8.10;99.90;;;;;;5071912;27;20517;-59
2024/01/01 13:06:57;;;;;;;;;;;8.00;99.90;;;;;;5093679;27;19924;-59
2024/01/01 13:09:23;;;;;;;;;;;8.00;99.90;;;;;;5070428;27;19928;-59
2024/01/01 13:11:49;;;;;;;;;;;8.00;99.90;;;;;;5070432;27;19962;-59
2024/01/01 13:14:15;;;;;;;;;;;7.90;99.90;;;;;;5074613;27;19923;-59
2024/01/01 13:16:41;;;;;;;;;;;7.90;99.90;;;;;;5073558;28;19966;-60
2024/01/01 13:19:06;;;;;;;;;;;7.90;99.90;;;;;;5062323;28;19931;-59
2024/01/01 13:21:32;;;;;;;;;;;7.80;99.90;;;;;;5072214;27;19928;-58
2024/01/01 13:23:58;;;;;;;;;;;7.80;99.90;;;;;;5067073;27;19932;-59
2024/01/01 13:26:25;;;;;;;;;;;7.80;99.90;;;;;;5066976;27;19942;-59
2024/01/01 13:28:51;;;;;;;;;;;7.70;99.90;;;;;;5071370;28;20440;-59
2024/01/01 13:31:16;;;;;;;;;;;7.70;99.90;;;;;;5073644;27;19928;-59
2024/01/01 13:33:42;;;;;;;;;;;7.70;99.90;;;;;;5071185;27;19928;-60
2024/01/01 13:36:07;;;;;;;;;;;7.60;99.90;;;;;;5070781;27;20516;-59
2024/01/01 13:38:35;;;;;;;;;;;7.60;99.90;;;;;;5073627;28;19920;-59
2024/01/01 13:41:00;;;;;;;;;;;7.60;99.90;;;;;;5064600;28;20398;-60
2024/01/01 13:43:27;;;;;;;;;;;7.60;99.90;;;;;;5082427;28;19924;-59
2024/01/01 13:45:54;;;;;;;;;;;7.60;99.90;;;;;;5085246;28;20328;-59
2024/01/01 13:48:20;;;;;;;;;;;7.60;99.90;;;;;;5089108;28;19932;-59
2024/01/01 13:50:46;;;;;;;;;;;7.60;99.90;;;;;;5078527;28;19977;-59
2024/01/01 13:53:12;;;;;;;;;;;7.60;99.90;;;;;;5072832;28;20024;-60
2024/01/01 13:55:38;;;;;;;;;;;7.60;99.90;;;;;;5093121;28;20723;-58
2024/01/01 13:58:04;;;;;;;;;;;7.70;99.90;;;;;;5083492;28;19935;-59
2024/01/01 14:00:29;;;;;;;;;;;7.60;99.90;;;;;;5066753;28;19932;-58
2024/01/01 14:02:55;;;;;;;;;;;7.70;99.90;;;;;;5090739;27;19942;-59
2024/01/01 14:05:21;;;;;;;;;;;7.70;99.90;;;;;;5102212;27;19962;-59
2024/01/01 14:07:48;;;;;;;;;;;7.70;99.90;;;;;;5094339;28;20467;-59
2024/01/01 14:10:15;;;;;;;;;;;7.70;99.90;;;;;;5102115;27;20255;-60
2024/01/01 14:12:41;;;;;;;;;;;7.70;99.90;;;;;;5097294;28;20413;-59
2024/01/01 14:15:07;;;;;;;;;;;7.70;99.90;;;;;;5094475;28;19964;-59
2024/01/01 14:17:32;;;;;;;;;;;7.70;99.90;;;;;;5098469;28;19927;-58
2024/01/01 14:19:58;;;;;;;;;;;7.70;99.90;;;;;;5100915;28;19931;-59
2024/01/01 14:22:24;;;;;;;;;;;7.70;99.90;;;;;;5096555;28;20761;-59
2024/01/01 14:24:49;;;;;;;;;;;7.70;99.90;;;;;;5098104;28;19928;-59